Time;durP1;ratioP1;P1;durP2;ratioP2;P2;SDS_P1;SDS_P2;PMS_P1;PMS_P2;Temp;Humidity;BMP_temperature;BMP_pressure;BME280_temperature;BME280_humidity;BME280_pressure;Samples;Min_cycle;Max_cycle;Signal;HPM_P1;HPM_P2
2022/09/17 00:02:26;;;;;;;3.63;1.80;;;;;;;;;;4792640;30;20075;-73
2022/09/17 00:04:52;;;;;;;3.47;1.40;;;;;;;;;;4792276;30;20043;-73
2022/09/17 00:07:18;;;;;;;2.80;1.67;;;;;;;;;;4791591;30;20044;-73
2022/09/17 00:09:44;;;;;;;2.08;1.70;;;;;;;;;;4792251;30;20057;-73
2022/09/17 00:12:10;;;;;;;4.95;1.55;;;;;;;;;;4791489;30;20081;-72
2022/09/17 00:14:36;;;;;;;4.10;2.03;;;;;;;;;;4791658;30;20054;-73
2022/09/17 00:17:02;;;;;;;2.38;1.55;;;;;;;;;;4791578;30;20075;-73
2022/09/17 00:19:29;;;;;;;2.85;1.63;;;;;;;;;;4791304;29;20188;-73
2022/09/17 00:21:55;;;;;;;4.95;1.90;;;;;;;;;;4791521;30;20039;-72
2022/09/17 00:24:21;;;;;;;4.10;1.52;;;;;;;;;;4791503;30;20093;-72
2022/09/17 00:26:48;;;;;;;4.30;1.45;;;;;;;;;;4791643;30;20036;-72
2022/09/17 00:29:14;;;;;;;4.82;1.80;;;;;;;;;;4791690;29;20073;-73
2022/09/17 00:31:41;;;;;;;3.95;1.88;;;;;;;;;;4791311;29;20051;-73
2022/09/17 00:34:07;;;;;;;3.58;2.00;;;;;;;;;;4778040;29;20492;-73
2022/09/17 00:36:34;;;;;;;2.03;1.30;;;;;;;;;;4772464;30;20070;-73
2022/09/17 00:39:01;;;;;;;3.85;1.75;;;;;;;;;;4772537;30;20055;-73
2022/09/17 00:41:30;;;;;;;4.80;1.58;;;;;;;;;;4772760;30;20075;-73
2022/09/17 00:43:58;;;;;;;6.55;2.00;;;;;;;;;;4773267;30;20052;-73
2022/09/17 00:46:27;;;;;;;3.40;1.60;;;;;;;;;;4773879;30;20068;-72
2022/09/17 00:48:54;;;;;;;2.95;1.65;;;;;;;;;;4773737;30;20050;-72
2022/09/17 00:51:25;;;;;;;3.55;1.35;;;;;;;;;;4772955;30;20440;-73
2022/09/17 00:53:51;;;;;;;2.15;1.27;;;;;;;;;;4773177;30;20456;-73
2022/09/17 00:56:29;;;;;;;4.68;1.50;;;;;;;;;;4773056;30;20450;-72
2022/09/17 00:58:56;;;;;;;5.32;1.48;;;;;;;;;;4773394;30;20052;-72
2022/09/17 01:01:22;;;;;;;5.20;1.98;;;;;;;;;;4773171;30;20405;-72
2022/09/17 01:03:48;;;;;;;4.07;1.58;;;;;;;;;;4773211;30;20536;-72
2022/09/17 01:06:23;;;;;;;2.88;1.45;;;;;;;;;;4772894;30;20047;-72
2022/09/17 01:09:08;;;;;;;4.32;1.85;;;;;;;;;;4772824;30;20404;-72
2022/09/17 01:12:00;;;;;;;5.07;1.70;;;;;;;;;;4772760;30;20075;-73
2022/09/17 01:14:29;;;;;;;2.80;1.63;;;;;;;;;;4773222;30;20101;-73
2022/09/17 01:17:08;;;;;;;2.38;1.58;;;;;;;;;;4772739;30;20040;-73
2022/09/17 01:19:48;;;;;;;2.92;1.50;;;;;;;;;;4772670;30;20504;-73
2022/09/17 01:22:14;;;;;;;1.85;1.42;;;;;;;;;;4772563;30;20524;-73
2022/09/17 01:24:48;;;;;;;2.33;1.40;;;;;;;;;;4772566;30;20054;-73
2022/09/17 01:27:24;;;;;;;5.32;1.65;;;;;;;;;;4772830;30;20052;-73
2022/09/17 01:29:59;;;;;;;2.72;1.63;;;;;;;;;;4773537;30;20048;-72
2022/09/17 01:32:29;;;;;;;4.45;1.83;;;;;;;;;;4773404;30;20068;-72
2022/09/17 01:34:55;;;;;;;4.90;1.63;;;;;;;;;;4772394;30;20514;-73
2022/09/17 01:37:44;;;;;;;1.70;1.58;;;;;;;;;;4772436;30;20104;-72
2022/09/17 01:40:17;;;;;;;3.83;1.60;;;;;;;;;;4773158;30;20120;-72
2022/09/17 01:42:46;;;;;;;2.63;1.52;;;;;;;;;;4772269;30;20082;-72
2022/09/17 01:45:15;;;;;;;2.80;1.40;;;;;;;;;;4771745;30;20059;-73
2022/09/17 01:47:49;;;;;;;3.60;1.48;;;;;;;;;;4771757;30;20503;-72
2022/09/17 01:50:30;;;;;;;3.13;1.40;;;;;;;;;;4771942;30;20467;-72
2022/09/17 01:52:57;;;;;;;4.93;1.38;;;;;;;;;;4772116;30;20052;-72
2022/09/17 01:55:27;;;;;;;5.32;2.17;;;;;;;;;;4772060;30;20052;-72
2022/09/17 01:57:53;;;;;;;3.40;1.73;;;;;;;;;;4772732;30;20043;-72
2022/09/17 02:00:19;;;;;;;3.63;2.05;;;;;;;;;;4771939;30;20134;-72
2022/09/17 02:03:17;;;;;;;3.25;1.52;;;;;;;;;;4772016;30;20136;-73
2022/09/17 02:05:55;;;;;;;3.35;1.55;;;;;;;;;;4780273;30;20374;-73
2022/09/17 02:08:25;;;;;;;2.95;1.77;;;;;;;;;;4771824;30;20059;-72
2022/09/17 02:11:13;;;;;;;4.40;1.63;;;;;;;;;;4772041;30;20051;-72
2022/09/17 02:13:58;;;;;;;2.42;1.63;;;;;;;;;;4771378;30;20105;-72
2022/09/17 02:16:25;;;;;;;3.10;1.50;;;;;;;;;;4771902;30;20069;-73
2022/09/17 02:19:11;;;;;;;3.72;1.88;;;;;;;;;;4772220;30;20055;-73
2022/09/17 02:21:46;;;;;;;5.22;1.77;;;;;;;;;;4771667;30;20146;-73
2022/09/17 02:24:12;;;;;;;2.53;1.55;;;;;;;;;;4770738;30;20471;-73
2022/09/17 02:26:40;;;;;;;2.13;1.40;;;;;;;;;;4771696;30;20119;-73
2022/09/17 02:29:13;;;;;;;3.42;1.90;;;;;;;;;;4771380;30;20080;-73
2022/09/17 02:31:40;;;;;;;3.10;1.60;;;;;;;;;;4771766;30;20052;-73
2022/09/17 02:34:07;;;;;;;3.00;1.63;;;;;;;;;;4772107;30;20052;-73
2022/09/17 02:36:34;;;;;;;4.07;1.83;;;;;;;;;;4771291;30;20039;-73
2022/09/17 02:39:01;;;;;;;5.43;1.85;;;;;;;;;;4772007;30;20074;-73
2022/09/17 02:41:50;;;;;;;5.50;1.35;;;;;;;;;;4771740;30;20063;-73
2022/09/17 02:44:21;;;;;;;9.43;1.80;;;;;;;;;;4771747;30;20117;-73
2022/09/17 02:46:47;;;;;;;;;;;;;;;;;;4771756;30;20463;-73
2022/09/17 02:49:25;;;;;;;3.60;1.60;;;;;;;;;;4771950;30;19914;-73
2022/09/17 02:51:56;;;;;;;2.75;1.42;;;;;;;;;;4771089;30;20079;-75
2022/09/17 02:54:22;;;;;;;3.65;1.95;;;;;;;;;;4772190;30;20146;-74
2022/09/17 02:56:53;;;;;;;4.55;1.83;;;;;;;;;;4771716;30;20531;-73
2022/09/17 02:59:29;;;;;;;4.18;1.58;;;;;;;;;;4774761;30;20079;-73
2022/09/17 03:01:55;;;;;;;5.45;1.98;;;;;;;;;;4775085;30;20052;-74
2022/09/17 03:04:22;;;;;;;3.15;1.80;;;;;;;;;;4774649;30;20370;-74
2022/09/17 03:06:48;;;;;;;7.32;1.70;;;;;;;;;;4774529;30;20043;-74
2022/09/17 03:09:15;;;;;;;3.63;1.80;;;;;;;;;;4775048;30;20044;-74
2022/09/17 03:11:41;;;;;;;6.10;2.03;;;;;;;;;;4774907;30;20047;-74
2022/09/17 03:14:07;;;;;;;2.92;1.60;;;;;;;;;;4774759;30;20096;-73
2022/09/17 03:16:34;;;;;;;4.15;1.95;;;;;;;;;;4774786;30;20047;-74
2022/09/17 03:19:00;;;;;;;2.78;1.80;;;;;;;;;;4774339;30;20052;-73
2022/09/17 03:21:26;;;;;;;3.95;1.80;;;;;;;;;;4774764;30;20113;-74
2022/09/17 03:23:52;;;;;;;3.15;1.70;;;;;;;;;;4774876;30;20077;-73
2022/09/17 03:26:18;;;;;;;4.95;1.85;;;;;;;;;;4774554;30;20059;-74
2022/09/17 03:28:44;;;;;;;1.70;1.58;;;;;;;;;;4774554;30;20116;-73
2022/09/17 03:31:11;;;;;;;3.92;1.67;;;;;;;;;;4774756;30;20131;-73
2022/09/17 03:33:37;;;;;;;3.97;1.85;;;;;;;;;;4774536;30;20105;-74
2022/09/17 03:36:03;;;;;;;3.35;2.00;;;;;;;;;;4774406;30;20079;-74
2022/09/17 03:38:29;;;;;;;3.85;1.90;;;;;;;;;;4772895;30;20454;-74
2022/09/17 03:41:02;;;;;;;2.88;1.67;;;;;;;;;;4774519;30;20138;-74
2022/09/17 03:43:28;;;;;;;4.90;2.15;;;;;;;;;;4774154;30;20535;-74
2022/09/17 03:45:54;;;;;;;4.18;1.70;;;;;;;;;;4773941;30;20064;-74
2022/09/17 03:48:21;;;;;;;7.35;1.70;;;;;;;;;;4774996;30;20051;-74
2022/09/17 03:50:47;;;;;;;5.30;1.83;;;;;;;;;;4774180;30;20408;-74
2022/09/17 03:53:13;;;;;;;5.43;2.20;;;;;;;;;;4774413;30;20079;-74
2022/09/17 03:55:39;;;;;;;4.28;2.00;;;;;;;;;;4774738;30;20559;-74
2022/09/17 03:58:05;;;;;;;4.47;1.90;;;;;;;;;;4774531;30;20052;-74
2022/09/17 04:00:32;;;;;;;2.80;1.63;;;;;;;;;;4774319;30;20052;-74
2022/09/17 04:02:58;;;;;;;4.50;2.60;;;;;;;;;;4774857;30;20147;-73
2022/09/17 04:05:24;;;;;;;3.15;1.70;;;;;;;;;;4774241;30;20079;-74
2022/09/17 04:07:50;;;;;;;2.75;1.90;;;;;;;;;;4774014;30;20051;-74
2022/09/17 04:10:17;;;;;;;3.28;1.80;;;;;;;;;;4773826;30;20044;-74
2022/09/17 04:12:43;;;;;;;2.05;1.52;;;;;;;;;;4773965;30;20543;-74
2022/09/17 04:15:09;;;;;;;3.90;1.80;;;;;;;;;;4773778;30;20125;-74
2022/09/17 04:17:35;;;;;;;3.28;2.00;;;;;;;;;;4773933;30;20062;-74
2022/09/17 04:20:03;;;;;;;3.75;1.77;;;;;;;;;;4773710;30;20058;-74
2022/09/17 04:22:29;;;;;;;2.70;2.10;;;;;;;;;;4773628;30;20077;-74
2022/09/17 04:24:55;;;;;;;2.97;1.75;;;;;;;;;;4773914;30;20050;-73
2022/09/17 04:27:21;;;;;;;3.58;1.63;;;;;;;;;;4773851;30;20058;-74
2022/09/17 04:29:47;;;;;;;3.83;1.80;;;;;;;;;;4774342;30;20101;-74
2022/09/17 04:32:13;;;;;;;4.50;1.92;;;;;;;;;;4773814;30;20108;-74
2022/09/17 04:34:40;;;;;;;6.82;1.80;;;;;;;;;;4773967;30;20113;-74
2022/09/17 04:37:06;;;;;;;3.88;1.98;;;;;;;;;;4773436;30;20481;-74
2022/09/17 04:39:32;;;;;;;3.88;1.98;;;;;;;;;;4773372;30;20113;-74
2022/09/17 04:41:58;;;;;;;4.63;2.13;;;;;;;;;;4773473;30;20086;-74
2022/09/17 04:44:24;;;;;;;3.05;1.65;;;;;;;;;;4773384;30;20473;-75
2022/09/17 04:46:50;;;;;;;4.10;1.90;;;;;;;;;;4772944;30;20050;-74
2022/09/17 04:49:16;;;;;;;6.78;2.10;;;;;;;;;;4772928;30;20051;-74
2022/09/17 04:51:43;;;;;;;4.80;2.10;;;;;;;;;;4773126;30;20193;-74
2022/09/17 04:54:09;;;;;;;4.88;1.98;;;;;;;;;;4773372;30;20197;-74
2022/09/17 04:56:35;;;;;;;3.53;1.90;;;;;;;;;;4772877;30;20100;-74
2022/09/17 04:59:01;;;;;;;6.25;2.50;;;;;;;;;;4772710;30;20040;-74
2022/09/17 05:01:27;;;;;;;3.78;1.90;;;;;;;;;;4773218;30;20055;-74
2022/09/17 05:03:53;;;;;;;6.72;2.40;;;;;;;;;;4773213;30;20043;-74
2022/09/17 05:06:19;;;;;;;5.57;2.05;;;;;;;;;;4772853;30;20047;-74
2022/09/17 05:08:45;;;;;;;4.82;2.10;;;;;;;;;;4772870;30;20051;-74
2022/09/17 05:11:11;;;;;;;6.45;2.35;;;;;;;;;;4772851;30;20052;-74
2022/09/17 05:13:37;;;;;;;3.92;1.83;;;;;;;;;;4772834;30;20048;-74
2022/09/17 05:16:04;;;;;;;3.47;2.10;;;;;;;;;;4772478;30;20035;-74
2022/09/17 05:18:30;;;;;;;8.35;2.25;;;;;;;;;;4772688;30;20059;-74
2022/09/17 05:20:56;;;;;;;4.68;2.05;;;;;;;;;;4771799;30;20043;-74
2022/09/17 05:23:22;;;;;;;4.93;2.30;;;;;;;;;;4773031;30;20051;-74
2022/09/17 05:25:49;;;;;;;6.10;2.13;;;;;;;;;;4772583;30;20050;-74
2022/09/17 05:28:15;;;;;;;9.23;2.28;;;;;;;;;;4773078;30;20047;-74
2022/09/17 05:30:41;;;;;;;6.32;2.20;;;;;;;;;;4772537;30;20047;-74
2022/09/17 05:33:07;;;;;;;6.25;2.42;;;;;;;;;;4772658;30;20126;-74
2022/09/17 05:35:37;;;;;;;7.57;2.50;;;;;;;;;;4772181;30;20048;-74
2022/09/17 05:38:04;;;;;;;3.47;1.92;;;;;;;;;;4772689;30;20055;-74
2022/09/17 05:40:34;;;;;;;5.53;2.08;;;;;;;;;;4771968;30;20044;-74
2022/09/17 05:43:01;;;;;;;5.88;2.35;;;;;;;;;;4772113;30;20500;-74
2022/09/17 05:45:27;;;;;;;4.50;2.40;;;;;;;;;;4772178;30;20405;-74
2022/09/17 05:47:55;;;;;;;5.00;1.95;;;;;;;;;;4772713;30;20043;-74
2022/09/17 05:50:22;;;;;;;6.75;2.30;;;;;;;;;;4772461;30;20090;-74
2022/09/17 05:52:48;;;;;;;5.28;2.40;;;;;;;;;;4772289;30;20058;-74
2022/09/17 05:55:15;;;;;;;3.08;1.90;;;;;;;;;;4772473;30;20052;-74
2022/09/17 05:57:41;;;;;;;4.22;2.00;;;;;;;;;;4772009;30;20504;-74
2022/09/17 06:00:08;;;;;;;3.35;2.10;;;;;;;;;;4772021;30;20090;-74
2022/09/17 06:02:34;;;;;;;3.35;1.80;;;;;;;;;;4772751;30;20074;-74
2022/09/17 06:05:01;;;;;;;4.90;2.08;;;;;;;;;;4772721;30;20549;-74
2022/09/17 06:07:27;;;;;;;7.05;2.20;;;;;;;;;;4771768;30;20055;-74
2022/09/17 06:09:54;;;;;;;6.18;2.20;;;;;;;;;;4771932;30;20097;-74
2022/09/17 06:12:20;;;;;;;6.32;1.65;;;;;;;;;;4772655;30;20072;-74
2022/09/17 06:14:46;;;;;;;6.18;1.92;;;;;;;;;;4772113;30;20077;-74
2022/09/17 06:17:12;;;;;;;5.70;2.10;;;;;;;;;;4771974;30;20058;-74
2022/09/17 06:19:39;;;;;;;5.30;2.00;;;;;;;;;;4772553;30;20074;-74
2022/09/17 06:22:05;;;;;;;4.05;2.17;;;;;;;;;;4771933;30;20052;-74
2022/09/17 06:24:32;;;;;;;3.78;1.88;;;;;;;;;;4771729;30;20117;-74
2022/09/17 06:26:58;;;;;;;4.10;2.13;;;;;;;;;;4771651;30;20051;-74
2022/09/17 06:29:24;;;;;;;6.85;1.98;;;;;;;;;;4771899;30;20039;-74
2022/09/17 06:31:50;;;;;;;7.78;2.00;;;;;;;;;;4771429;30;20086;-74
2022/09/17 06:34:17;;;;;;;7.45;2.70;;;;;;;;;;4771820;30;20048;-74
2022/09/17 06:36:43;;;;;;;13.70;2.55;;;;;;;;;;4771629;30;20047;-74
2022/09/17 06:39:10;;;;;;;7.95;2.55;;;;;;;;;;4771714;30;20094;-74
2022/09/17 06:41:37;;;;;;;4.30;2.50;;;;;;;;;;4771692;30;20056;-74
2022/09/17 06:44:03;;;;;;;2.80;2.03;;;;;;;;;;4771751;30;20136;-74
2022/09/17 06:46:29;;;;;;;5.03;2.33;;;;;;;;;;4771335;30;20140;-74
2022/09/17 06:48:55;;;;;;;7.60;2.25;;;;;;;;;;4771115;30;20048;-74
2022/09/17 06:51:22;;;;;;;5.32;2.20;;;;;;;;;;4770990;30;20127;-74
2022/09/17 06:53:48;;;;;;;3.92;2.13;;;;;;;;;;4771098;30;20500;-74
2022/09/17 06:56:14;;;;;;;3.78;2.15;;;;;;;;;;4771085;30;20051;-74
2022/09/17 06:58:41;;;;;;;7.68;2.45;;;;;;;;;;4771209;30;20054;-74
2022/09/17 07:01:08;;;;;;;6.05;2.17;;;;;;;;;;4771003;30;20044;-74
2022/09/17 07:03:34;;;;;;;4.38;2.10;;;;;;;;;;4771361;30;20051;-74
2022/09/17 07:06:01;;;;;;;7.10;2.15;;;;;;;;;;4771092;30;20051;-74
2022/09/17 07:08:27;;;;;;;7.55;2.40;;;;;;;;;;4770594;30;20518;-74
2022/09/17 07:10:57;;;;;;;6.55;2.17;;;;;;;;;;4770492;30;20051;-74
2022/09/17 07:13:23;;;;;;;4.97;1.83;;;;;;;;;;4770841;30;20040;-74
2022/09/17 07:15:56;;;;;;;8.82;2.30;;;;;;;;;;4769348;30;20062;-74
2022/09/17 07:18:26;;;;;;;4.50;2.10;;;;;;;;;;4769315;30;20043;-74
2022/09/17 07:20:56;;;;;;;4.72;1.80;;;;;;;;;;4769602;30;20052;-74
2022/09/17 07:23:24;;;;;;;5.13;2.10;;;;;;;;;;4786275;29;20484;-74
2022/09/17 07:25:53;;;;;;;4.25;2.05;;;;;;;;;;4770283;30;20183;-74
2022/09/17 07:28:20;;;;;;;4.40;2.33;;;;;;;;;;4769972;30;20056;-74
2022/09/17 07:30:46;;;;;;;12.20;2.15;;;;;;;;;;4769149;30;20036;-74
2022/09/17 07:33:12;;;;;;;4.10;1.95;;;;;;;;;;4769894;30;20047;-74
2022/09/17 07:35:38;;;;;;;2.75;1.70;;;;;;;;;;4769632;30;20096;-73
2022/09/17 07:38:04;;;;;;;3.83;1.77;;;;;;;;;;4769237;30;20449;-74
2022/09/17 07:40:30;;;;;;;4.28;2.25;;;;;;;;;;4770331;30;20059;-73
2022/09/17 07:42:57;;;;;;;3.45;1.70;;;;;;;;;;4771056;30;20063;-74
2022/09/17 07:45:23;;;;;;;4.18;2.25;;;;;;;;;;4771031;30;20520;-74
2022/09/17 07:47:50;;;;;;;6.22;2.45;;;;;;;;;;4772671;30;20201;-74
2022/09/17 07:50:16;;;;;;;4.25;1.67;;;;;;;;;;4773671;30;20067;-74
2022/09/17 07:52:48;;;;;;;5.53;2.35;;;;;;;;;;4774197;30;20051;-74
2022/09/17 07:55:15;;;;;;;3.88;1.92;;;;;;;;;;4772215;30;20043;-75
2022/09/17 07:57:41;;;;;;;3.13;1.52;;;;;;;;;;4772422;30;20047;-74
2022/09/17 08:00:08;;;;;;;3.88;1.77;;;;;;;;;;4772442;30;20078;-76
2022/09/17 08:03:10;;;;;;;1.98;1.33;;;;;;;;;;4773403;30;20055;-75
2022/09/17 08:05:37;;;;;;;5.35;1.90;;;;;;;;;;4788001;30;20070;-78
2022/09/17 08:08:03;;;;;;;5.63;2.00;;;;;;;;;;4775598;30;20143;-74
2022/09/17 08:10:30;;;;;;;4.10;2.03;;;;;;;;;;4773654;30;20051;-73
2022/09/17 08:12:57;;;;;;;4.60;1.80;;;;;;;;;;4773229;30;20083;-74
2022/09/17 08:15:23;;;;;;;2.80;1.58;;;;;;;;;;4771907;30;20051;-74
2022/09/17 08:17:50;;;;;;;3.50;1.40;;;;;;;;;;4773044;30;20389;-73
2022/09/17 08:20:17;;;;;;;2.78;1.63;;;;;;;;;;4773684;30;20048;-73
2022/09/17 08:22:44;;;;;;;3.80;1.45;;;;;;;;;;4773434;30;20508;-73
2022/09/17 08:25:10;;;;;;;3.20;1.48;;;;;;;;;;4773319;30;20043;-73
2022/09/17 08:27:39;;;;;;;2.97;1.42;;;;;;;;;;4771663;30;20048;-74
2022/09/17 08:30:06;;;;;;;4.03;1.42;;;;;;;;;;4773856;30;20048;-73
2022/09/17 08:32:32;;;;;;;2.97;1.40;;;;;;;;;;4774028;30;20051;-73
2022/09/17 08:34:58;;;;;;;4.13;1.38;;;;;;;;;;4773127;30;20035;-73
2022/09/17 08:37:26;;;;;;;5.60;1.65;;;;;;;;;;4772533;30;20051;-73
2022/09/17 08:39:52;;;;;;;3.85;1.40;;;;;;;;;;4773297;30;20043;-73
2022/09/17 08:42:27;;;;;;;3.17;1.70;;;;;;;;;;4773373;30;20051;-73
2022/09/17 08:44:54;;;;;;;5.55;1.35;;;;;;;;;;4773381;30;20059;-73
2022/09/17 08:47:35;;;;;;;7.43;2.30;;;;;;;;;;4773197;30;20044;-73
2022/09/17 08:50:02;;;;;;;2.92;1.60;;;;;;;;;;4772480;30;20047;-73
2022/09/17 08:52:48;;;;;;;5.03;1.60;;;;;;;;;;4772682;30;20043;-73
2022/09/17 08:55:15;;;;;;;2.92;1.30;;;;;;;;;;4772820;30;20040;-73
2022/09/17 08:57:41;;;;;;;3.75;1.77;;;;;;;;;;4773186;30;20090;-73
2022/09/17 09:00:13;;;;;;;5.10;1.85;;;;;;;;;;4773278;30;20047;-73
2022/09/17 09:02:42;;;;;;;1.88;1.25;;;;;;;;;;4772812;30;20048;-78
2022/09/17 09:05:12;;;;;;;2.78;1.55;;;;;;;;;;4772328;30;20040;-73
2022/09/17 09:07:42;;;;;;;5.40;1.90;;;;;;;;;;4772963;30;20051;-71
2022/09/17 09:10:11;;;;;;;3.50;1.73;;;;;;;;;;4773296;30;20079;-72
2022/09/17 09:12:38;;;;;;;3.17;1.65;;;;;;;;;;4772801;30;20262;-72
2022/09/17 09:15:18;;;;;;;4.18;1.70;;;;;;;;;;4772360;30;20043;-72
2022/09/17 09:17:46;;;;;;;4.00;1.50;;;;;;;;;;4772829;30;20067;-71
2022/09/17 09:20:42;;;;;;;3.53;1.52;;;;;;;;;;4771815;30;20068;-71
2022/09/17 09:23:23;;;;;;;4.70;1.75;;;;;;;;;;4783179;30;20043;-72
2022/09/17 09:26:01;;;;;;;4.03;1.60;;;;;;;;;;4769881;30;20497;-75
2022/09/17 09:28:35;;;;;;;2.22;1.40;;;;;;;;;;4769829;30;20071;-73
2022/09/17 09:31:10;;;;;;;2.72;1.27;;;;;;;;;;4772063;30;20052;-73
2022/09/17 09:33:42;;;;;;;3.20;1.20;;;;;;;;;;4772229;30;20051;-73
2022/09/17 09:36:11;;;;;;;3.08;1.50;;;;;;;;;;4772384;30;20539;-73
2022/09/17 09:38:37;;;;;;;4.03;1.73;;;;;;;;;;4771366;30;20508;-73
2022/09/17 09:41:04;;;;;;;5.18;1.90;;;;;;;;;;4771669;30;20409;-73
2022/09/17 09:43:41;;;;;;;3.47;1.35;;;;;;;;;;4771938;30;20054;-73
2022/09/17 09:46:19;;;;;;;4.10;1.35;;;;;;;;;;4770011;30;20589;-74
2022/09/17 09:49:00;;;;;;;2.60;1.42;;;;;;;;;;4769866;30;20051;-72
2022/09/17 09:51:26;;;;;;;1.67;1.30;;;;;;;;;;4769735;30;20092;-73
2022/09/17 09:54:07;;;;;;;3.33;1.13;;;;;;;;;;4771763;30;20508;-73
2022/09/17 09:56:52;;;;;;;2.47;1.20;;;;;;;;;;4771759;30;20128;-73
2022/09/17 09:59:19;;;;;;;2.22;1.13;;;;;;;;;;4771768;30;20079;-73
2022/09/17 10:01:46;;;;;;;2.00;1.20;;;;;;;;;;4772234;30;20047;-72
2022/09/17 10:04:23;;;;;;;2.33;1.20;;;;;;;;;;4771968;30;20052;-74
2022/09/17 10:06:51;;;;;;;2.13;1.10;;;;;;;;;;4771218;30;20050;-73
2022/09/17 10:09:20;;;;;;;5.28;1.25;;;;;;;;;;4772267;30;20079;-73
2022/09/17 10:12:05;;;;;;;3.28;1.30;;;;;;;;;;4771426;30;20119;-73
2022/09/17 10:14:33;;;;;;;2.92;1.17;;;;;;;;;;4771819;30;20504;-72
2022/09/17 10:17:14;;;;;;;2.20;0.93;;;;;;;;;;4772084;30;20549;-72
2022/09/17 10:19:41;;;;;;;;;;;;;;;;;;4772774;30;20092;-73
2022/09/17 10:22:28;;;;;;;1.80;1.10;;;;;;;;;;4771582;30;20333;-72
2022/09/17 10:24:55;;;;;;;1.20;1.05;;;;;;;;;;4771287;30;20055;-72
2022/09/17 10:27:22;;;;;;;1.85;0.93;;;;;;;;;;4771631;30;20044;-73
2022/09/17 10:29:50;;;;;;;5.75;1.05;;;;;;;;;;4771921;30;20036;-72
2022/09/17 10:32:17;;;;;;;2.05;1.00;;;;;;;;;;4771735;30;20123;-72
2022/09/17 10:35:04;;;;;;;3.28;0.88;;;;;;;;;;4771581;30;20051;-72
2022/09/17 10:37:36;;;;;;;3.30;1.05;;;;;;;;;;4770859;30;20072;-72
2022/09/17 10:40:22;;;;;;;3.22;1.05;;;;;;;;;;4770415;30;20052;-73
2022/09/17 10:43:13;;;;;;;2.75;1.00;;;;;;;;;;4767489;30;20055;-73
2022/09/17 10:45:42;;;;;;;3.10;0.93;;;;;;;;;;4769602;30;20079;-73
2022/09/17 10:48:15;;;;;;;1.60;1.00;;;;;;;;;;4771056;30;20113;-73
2022/09/17 10:50:47;;;;;;;1.70;0.75;;;;;;;;;;4766726;30;20454;-73
2022/09/17 10:53:16;;;;;;;2.15;0.77;;;;;;;;;;4776967;30;20135;-73
2022/09/17 10:55:46;;;;;;;1.88;0.70;;;;;;;;;;4770535;30;20058;-73
2022/09/17 10:58:41;;;;;;;3.90;0.90;;;;;;;;;;4769568;30;20064;-73
2022/09/17 11:01:17;;;;;;;1.70;1.10;;;;;;;;;;4777417;29;20482;-73
2022/09/17 11:03:49;;;;;;;2.53;0.75;;;;;;;;;;4770897;30;20052;-73
2022/09/17 11:06:34;;;;;;;1.70;0.70;;;;;;;;;;4770090;30;20048;-73
2022/09/17 11:09:15;;;;;;;1.60;0.77;;;;;;;;;;4772976;30;20051;-73
2022/09/17 11:11:50;;;;;;;1.17;0.60;;;;;;;;;;4769831;30;20542;-73
2022/09/17 11:14:16;;;;;;;1.77;0.80;;;;;;;;;;4768578;30;20059;-73
2022/09/17 11:16:51;;;;;;;1.00;0.70;;;;;;;;;;4769949;30;20044;-73
2022/09/17 11:19:39;;;;;;;1.38;0.63;;;;;;;;;;4771303;30;20047;-73
2022/09/17 11:22:12;;;;;;;1.75;0.90;;;;;;;;;;4774111;30;20412;-74
2022/09/17 11:24:48;;;;;;;2.13;0.60;;;;;;;;;;4773067;30;20048;-75
2022/09/17 11:27:20;;;;;;;2.55;0.80;;;;;;;;;;4773612;30;20044;-72
2022/09/17 11:30:04;;;;;;;2.20;0.70;;;;;;;;;;4773044;30;20083;-73
2022/09/17 11:32:36;;;;;;;1.85;0.82;;;;;;;;;;4772497;30;20055;-72
2022/09/17 11:35:08;;;;;;;1.35;0.73;;;;;;;;;;4770707;30;20082;-71
2022/09/17 11:37:47;;;;;;;3.15;1.00;;;;;;;;;;4773049;30;20059;-71
2022/09/17 11:40:14;;;;;;;1.63;1.10;;;;;;;;;;4771635;30;20055;-72
2022/09/17 11:42:44;;;;;;;2.35;0.70;;;;;;;;;;4773089;30;20079;-72
2022/09/17 11:45:17;;;;;;;1.67;0.60;;;;;;;;;;4756262;30;20168;-72
2022/09/17 11:47:52;;;;;;;3.53;0.95;;;;;;;;;;4773768;30;20044;-72
2022/09/17 11:50:27;;;;;;;2.22;0.82;;;;;;;;;;4773002;30;20108;-72
2022/09/17 11:52:57;;;;;;;1.73;0.60;;;;;;;;;;4762054;30;20051;-72
2022/09/17 11:55:23;;;;;;;1.55;0.73;;;;;;;;;;4773225;30;20117;-72
2022/09/17 11:57:52;;;;;;;1.95;0.52;;;;;;;;;;4772202;30;20714;-72
2022/09/17 12:00:19;;;;;;;3.72;0.73;;;;;;;;;;4771757;30;20054;-72
2022/09/17 12:02:51;;;;;;;2.08;0.77;;;;;;;;;;4772818;30;20043;-71
2022/09/17 12:05:38;;;;;;;2.05;0.70;;;;;;;;;;4772777;30;20046;-71
2022/09/17 12:08:13;;;;;;;1.00;0.80;;;;;;;;;;4772728;30;20108;-72
2022/09/17 12:10:52;;;;;;;0.50;0.50;;;;;;;;;;4770350;30;20527;-72
2022/09/17 12:13:37;;;;;;;3.95;0.60;;;;;;;;;;4773783;30;20121;-72
2022/09/17 12:16:12;;;;;;;1.92;0.50;;;;;;;;;;4772713;30;20036;-72
2022/09/17 12:18:56;;;;;;;1.73;0.50;;;;;;;;;;4772584;30;20059;-72
2022/09/17 12:21:26;;;;;;;1.55;0.63;;;;;;;;;;4770129;30;20139;-72
2022/09/17 12:23:52;;;;;;;2.88;0.70;;;;;;;;;;4772647;30;20043;-72
2022/09/17 12:26:24;;;;;;;2.28;0.60;;;;;;;;;;4772327;30;20587;-73
2022/09/17 12:29:11;;;;;;;2.10;0.70;;;;;;;;;;4771587;30;20130;-71
2022/09/17 12:31:37;;;;;;;1.55;0.50;;;;;;;;;;4770836;30;20048;-71
2022/09/17 12:34:21;;;;;;;1.95;0.60;;;;;;;;;;4771942;30;20048;-71
2022/09/17 12:37:05;;;;;;;4.13;0.90;;;;;;;;;;4768736;30;20565;-71
2022/09/17 12:39:40;;;;;;;2.13;0.50;;;;;;;;;;4772801;30;20047;-70
2022/09/17 12:42:06;;;;;;;2.53;0.60;;;;;;;;;;4761094;30;20056;-70
2022/09/17 12:44:40;;;;;;;0.88;0.60;;;;;;;;;;4772423;30;20591;-71
2022/09/17 12:47:17;;;;;;;1.55;0.70;;;;;;;;;;4773343;30;20070;-70
2022/09/17 12:49:43;;;;;;;0.50;0.50;;;;;;;;;;4773729;30;20481;-70
2022/09/17 12:52:33;;;;;;;0.88;0.60;;;;;;;;;;4771470;30;20093;-70
2022/09/17 12:55:18;;;;;;;0.95;0.70;;;;;;;;;;4773307;30;20055;-72
2022/09/17 12:57:57;;;;;;;1.13;0.60;;;;;;;;;;4771972;30;20062;-71
2022/09/17 13:00:24;;;;;;;0.73;0.57;;;;;;;;;;4772259;30;20056;-70
2022/09/17 13:03:05;;;;;;;0.95;0.60;;;;;;;;;;4772311;30;20056;-70
2022/09/17 13:05:49;;;;;;;1.10;0.50;;;;;;;;;;4772339;30;20043;-70
2022/09/17 13:08:16;;;;;;;1.00;0.50;;;;;;;;;;4767862;30;20047;-70
2022/09/17 13:10:45;;;;;;;0.55;0.55;;;;;;;;;;4771313;30;20052;-70
2022/09/17 13:13:14;;;;;;;1.70;0.60;;;;;;;;;;4771816;30;20056;-70
2022/09/17 13:15:53;;;;;;;1.65;0.60;;;;;;;;;;4771639;30;20054;-70
2022/09/17 13:18:34;;;;;;;1.27;0.60;;;;;;;;;;4772106;30;20082;-69
2022/09/17 13:21:04;;;;;;;2.60;0.70;;;;;;;;;;4772529;30;20039;-70
2022/09/17 13:23:32;;;;;;;3.83;0.47;;;;;;;;;;4771458;30;20060;-70
2022/09/17 13:26:03;;;;;;;0.50;0.50;;;;;;;;;;4771580;30;20059;-70
2022/09/17 13:28:36;;;;;;;1.23;0.52;;;;;;;;;;4771722;30;20064;-70
2022/09/17 13:31:03;;;;;;;3.50;0.60;;;;;;;;;;4771514;30;20067;-69
2022/09/17 13:33:51;;;;;;;1.25;0.50;;;;;;;;;;4771672;30;20117;-69
2022/09/17 13:36:33;;;;;;;0.50;0.40;;;;;;;;;;4771918;30;20058;-69
2022/09/17 13:39:01;;;;;;;0.85;0.47;;;;;;;;;;4754352;30;20048;-70
2022/09/17 13:41:27;;;;;;;1.77;0.47;;;;;;;;;;4777459;30;20066;-70
2022/09/17 13:43:54;;;;;;;0.93;0.60;;;;;;;;;;4764110;29;20080;-69
2022/09/17 13:46:22;;;;;;;0.80;0.60;;;;;;;;;;4769885;30;20048;-69
2022/09/17 13:48:50;;;;;;;1.58;0.40;;;;;;;;;;4770840;30;20044;-69
2022/09/17 13:51:38;;;;;;;0.43;0.30;;;;;;;;;;4771118;30;20043;-69
2022/09/17 13:54:08;;;;;;;1.48;0.50;;;;;;;;;;4768855;30;20047;-69
2022/09/17 13:56:35;;;;;;;2.97;0.45;;;;;;;;;;4769474;30;20573;-70
2022/09/17 13:59:10;;;;;;;0.52;0.40;;;;;;;;;;4768327;30;20040;-69
2022/09/17 14:01:48;;;;;;;0.52;0.50;;;;;;;;;;4768634;30;20081;-69
2022/09/17 14:04:33;;;;;;;2.15;0.50;;;;;;;;;;4769315;30;20071;-68
2022/09/17 14:07:00;;;;;;;0.90;0.43;;;;;;;;;;4771167;30;20139;-68
2022/09/17 14:09:45;;;;;;;0.93;0.50;;;;;;;;;;4771042;30;20044;-68
2022/09/17 14:12:30;;;;;;;0.65;0.40;;;;;;;;;;4770475;30;20079;-68
2022/09/17 14:14:57;;;;;;;0.77;0.60;;;;;;;;;;4771220;30;20127;-69
2022/09/17 14:17:43;;;;;;;0.70;0.50;;;;;;;;;;4769136;30;20039;-69
2022/09/17 14:20:09;;;;;;;0.65;0.40;;;;;;;;;;4752729;30;20074;-69
2022/09/17 14:22:37;;;;;;;0.50;0.45;;;;;;;;;;4757096;30;20052;-70
2022/09/17 14:25:14;;;;;;;0.57;0.40;;;;;;;;;;4769958;30;20101;-70
2022/09/17 14:27:43;;;;;;;0.60;0.40;;;;;;;;;;4770030;30;20126;-69
2022/09/17 14:30:19;;;;;;;0.50;0.50;;;;;;;;;;4767789;30;20445;-71
2022/09/17 14:32:45;;;;;;;2.42;0.60;;;;;;;;;;4767793;30;20565;-68
2022/09/17 14:35:16;;;;;;;1.55;0.50;;;;;;;;;;4768518;30;20039;-68
2022/09/17 14:37:44;;;;;;;0.40;0.40;;;;;;;;;;4772632;30;20086;-70
2022/09/17 14:40:14;;;;;;;0.40;0.40;;;;;;;;;;4760380;30;20055;-70
2022/09/17 14:42:41;;;;;;;0.60;0.40;;;;;;;;;;4769952;30;20044;-70
2022/09/17 14:45:25;;;;;;;2.65;0.40;;;;;;;;;;4769625;30;20056;-70
2022/09/17 14:48:11;;;;;;;0.45;0.45;;;;;;;;;;4776705;30;20052;-70
2022/09/17 14:50:40;;;;;;;2.72;0.45;;;;;;;;;;4775880;30;20067;-70
2022/09/17 14:53:15;;;;;;;0.63;0.40;;;;;;;;;;4770198;30;20120;-70
2022/09/17 14:55:42;;;;;;;0.45;0.45;;;;;;;;;;4771740;30;20048;-70
2022/09/17 14:58:21;;;;;;;0.75;0.30;;;;;;;;;;4771558;30;20577;-70
2022/09/17 15:00:50;;;;;;;1.95;0.50;;;;;;;;;;4768134;30;20048;-70
2022/09/17 15:03:23;;;;;;;0.90;0.63;;;;;;;;;;4774399;30;20043;-71
2022/09/17 15:05:51;;;;;;;0.63;0.50;;;;;;;;;;4774175;30;20505;-72